createdAt,value
2018-02-21T00:01:07.111Z,92921.35
2018-02-21T00:03:33.557Z,92915.61
2018-02-21T00:05:59.900Z,92909.36
2018-02-21T00:08:36.929Z,92917.25
2018-02-21T00:11:03.278Z,92903.25
2018-02-21T00:13:29.670Z,92912.53
2018-02-21T00:15:56.042Z,92905.13
2018-02-21T00:18:25.813Z,92907.24
2018-02-21T00:20:52.141Z,92909.50
2018-02-21T00:23:18.529Z,92911.09
2018-02-21T00:25:44.818Z,92911.05
2018-02-21T00:28:11.255Z,92907.28
2018-02-21T00:30:37.610Z,92912.27
2018-02-21T00:33:04.015Z,92911.97
2018-02-21T00:35:30.351Z,92910.92
2018-02-21T00:37:58.781Z,92916.05
2018-02-21T00:40:25.122Z,92912.56
2018-02-21T00:42:51.445Z,92917.28
2018-02-21T00:45:17.813Z,92913.09
2018-02-21T00:47:44.263Z,92910.17
2018-02-21T00:50:10.737Z,92913.59
2018-02-21T00:52:37.085Z,92910.02
2018-02-21T00:55:03.469Z,92907.53
2018-02-21T00:57:31.813Z,92909.91
2018-02-21T00:59:58.190Z,92907.39
2018-02-21T01:02:24.526Z,92914.12
2018-02-21T01:04:50.849Z,92912.73
2018-02-21T01:07:18.339Z,92919.60
2018-02-21T01:09:44.719Z,92922.90
2018-02-21T01:12:11.175Z,92926.32
2018-02-21T01:14:37.519Z,92920.58
2018-02-21T01:17:03.843Z,92923.81
2018-02-21T01:19:30.185Z,92918.74
2018-02-21T01:21:56.594Z,92917.30
2018-02-21T01:24:22.918Z,92919.15
2018-02-21T01:26:49.301Z,92916.48
2018-02-21T01:29:15.805Z,92919.46
2018-02-21T01:31:42.148Z,92915.70
2018-02-21T01:34:08.471Z,92921.30
2018-02-21T01:36:34.792Z,92919.50
2018-02-21T01:39:01.260Z,92915.64
2018-02-21T01:41:27.704Z,92913.32
2018-02-21T01:43:54.053Z,92908.70
2018-02-21T01:46:20.407Z,92916.39
2018-02-21T01:48:54.258Z,92917.59
2018-02-21T01:51:20.583Z,92916.39
2018-02-21T01:53:46.985Z,92917.79
2018-02-21T01:56:14.239Z,92910.75
2018-02-21T01:58:42.605Z,92904.45
2018-02-21T02:01:08.947Z,92901.50
2018-02-21T02:03:35.389Z,92909.45
2018-02-21T02:06:01.793Z,92907.82
2018-02-21T02:08:28.245Z,92908.76
2018-02-21T02:10:54.644Z,92906.38
2018-02-21T02:13:20.980Z,92905.52
2018-02-21T02:15:47.373Z,92904.36
2018-02-21T02:18:14.895Z,92898.05
2018-02-21T02:20:41.216Z,92900.03
2018-02-21T02:23:07.548Z,92892.80
2018-02-21T02:25:33.914Z,92893.78
2018-02-21T02:28:03.602Z,92893.20
2018-02-21T02:30:29.923Z,92897.41
2018-02-21T02:32:56.298Z,92891.42
2018-02-21T02:35:22.603Z,92893.05
2018-02-21T02:37:48.998Z,92885.08
2018-02-21T02:40:15.441Z,92883.95
2018-02-21T02:42:41.797Z,92887.99
2018-02-21T02:45:08.126Z,92882.46
2018-02-21T02:47:38.834Z,92870.91
2018-02-21T02:50:06.062Z,92872.65
2018-02-21T02:52:32.363Z,92863.02
2018-02-21T02:54:58.761Z,92854.17
2018-02-21T02:57:25.195Z,92860.83
2018-02-21T02:59:51.529Z,92859.34
2018-02-21T03:02:17.882Z,92859.89
2018-02-21T03:04:44.241Z,92860.36
2018-02-21T03:07:10.590Z,92866.81
2018-02-21T03:09:37.015Z,92865.58
2018-02-21T03:12:03.324Z,92859.47
2018-02-21T03:14:29.710Z,92855.20
2018-02-21T03:16:56.044Z,92843.53
2018-02-21T03:19:23.511Z,92845.46
2018-02-21T03:21:49.842Z,92839.11
2018-02-21T03:24:16.196Z,92846.67
2018-02-21T03:26:42.541Z,92840.66
2018-02-21T03:29:10.977Z,92837.05
2018-02-21T03:31:37.312Z,92846.25
2018-02-21T03:34:03.697Z,92839.50
2018-02-21T03:36:30.083Z,92848.81
2018-02-21T03:38:59.670Z,92844.63
2018-02-21T03:41:26.040Z,92839.98
2018-02-21T03:43:52.371Z,92835.81
2018-02-21T03:46:18.795Z,92830.13
2018-02-21T03:48:50.455Z,92834.08
2018-02-21T03:51:16.751Z,92842.04
2018-02-21T03:53:43.090Z,92839.40
2018-02-21T03:56:09.529Z,92840.40
2018-02-21T03:58:39.107Z,92829.99
2018-02-21T04:01:05.453Z,92828.86
2018-02-21T04:03:31.830Z,92826.92
2018-02-21T04:05:58.161Z,92832.66
2018-02-21T04:08:25.589Z,92836.00
2018-02-21T04:10:51.976Z,92828.92
2018-02-21T04:13:18.387Z,92828.77
2018-02-21T04:15:44.713Z,92827.45
2018-02-21T04:18:15.218Z,92831.33
2018-02-21T04:20:41.524Z,92832.87
2018-02-21T04:23:07.863Z,92829.18
2018-02-21T04:25:34.233Z,92830.93
2018-02-21T04:28:01.637Z,92828.97
2018-02-21T04:30:27.982Z,92829.85
2018-02-21T04:32:54.343Z,92840.25
2018-02-21T04:35:20.693Z,92838.70
2018-02-21T04:37:47.065Z,92844.75
2018-02-21T04:40:13.468Z,92845.72
2018-02-21T04:42:39.776Z,92839.47
2018-02-21T04:45:06.113Z,92835.87
2018-02-21T04:47:32.541Z,92840.55
2018-02-21T04:49:58.861Z,92843.11
2018-02-21T04:52:25.438Z,92840.14
2018-02-21T04:58:08.614Z,92853.27
2018-02-21T05:00:35.019Z,92845.67
2018-02-21T05:03:01.320Z,92839.33
2018-02-21T05:05:27.865Z,92843.42
2018-02-21T05:08:01.807Z,92843.82
2018-02-21T05:10:28.186Z,92853.67
2018-02-21T05:12:54.514Z,92859.47
2018-02-21T05:15:20.924Z,92861.35
2018-02-21T05:17:47.373Z,92854.11
2018-02-21T05:20:13.714Z,92853.31
2018-02-21T05:22:40.258Z,92851.05
2018-02-21T05:25:06.585Z,92851.09
2018-02-21T05:27:38.678Z,92851.75
2018-02-21T05:30:05.094Z,92844.28
2018-02-21T05:32:31.457Z,92849.15
2018-02-21T05:34:57.857Z,92847.97
2018-02-21T05:37:30.296Z,92838.70
2018-02-21T05:39:56.917Z,92838.50
2018-02-21T05:42:23.332Z,92836.61
2018-02-21T05:44:49.752Z,92847.61
2018-02-21T05:47:16.148Z,92843.47
2018-02-21T05:49:42.459Z,92846.22
2018-02-21T05:52:08.876Z,92844.27
2018-02-21T05:54:35.320Z,92843.50
2018-02-21T05:57:01.689Z,92838.70
2018-02-21T05:59:28.180Z,92845.91
2018-02-21T06:01:54.694Z,92851.71
2018-02-21T06:04:21.126Z,92850.53
2018-02-21T06:06:47.536Z,92845.88
2018-02-21T06:09:17.167Z,92845.16
2018-02-21T06:11:43.505Z,92845.63
2018-02-21T06:14:10.226Z,92849.73
2018-02-21T06:16:36.673Z,92852.84
2018-02-21T06:19:03.058Z,92853.29
2018-02-21T06:21:29.383Z,92858.87
2018-02-21T06:23:55.758Z,92866.78
2018-02-21T06:26:22.219Z,92867.55
2018-02-21T06:28:48.657Z,92876.98
2018-02-21T06:31:15.089Z,92867.23
2018-02-21T06:33:41.492Z,92866.62
2018-02-21T06:36:07.846Z,92870.67
2018-02-21T06:38:34.243Z,92860.92
2018-02-21T06:41:00.620Z,92870.27
2018-02-21T06:43:27.018Z,92867.63
2018-02-21T06:45:53.383Z,92860.49
2018-02-21T06:48:21.033Z,92867.91
2018-02-21T06:50:47.463Z,92865.45
2018-02-21T06:53:14.014Z,92871.56
2018-02-21T06:55:40.366Z,92877.25
2018-02-21T06:58:17.540Z,92884.09
2018-02-21T07:00:43.945Z,92882.20
2018-02-21T07:03:10.381Z,92880.88
2018-02-21T07:05:36.854Z,92880.16
2018-02-21T07:08:12.934Z,92892.25
2018-02-21T07:10:39.306Z,92891.63
2018-02-21T07:13:05.648Z,92897.08
2018-02-21T07:15:32.119Z,92891.06
2018-02-21T07:18:05.333Z,92894.76
2018-02-21T07:20:31.718Z,92897.80
2018-02-21T07:22:58.062Z,92897.09
2018-02-21T07:25:24.473Z,92898.55
2018-02-21T07:27:50.855Z,92892.71
2018-02-21T07:30:17.201Z,92894.58
2018-02-21T07:32:43.571Z,92899.70
2018-02-21T07:35:09.920Z,92895.50
2018-02-21T07:37:36.244Z,92903.97
2018-02-21T07:40:02.663Z,92907.72
2018-02-21T07:42:29.055Z,92903.97
2018-02-21T07:44:55.410Z,92908.82
2018-02-21T07:47:21.812Z,92905.14
2018-02-21T07:49:48.574Z,92911.03
2018-02-21T07:52:14.915Z,92896.53
2018-02-21T07:54:41.305Z,92908.16
2018-02-21T07:57:07.613Z,92911.88
2018-02-21T07:59:41.206Z,92910.65
2018-02-21T08:02:07.538Z,92918.41
2018-02-21T08:04:33.964Z,92914.24
2018-02-21T08:07:00.398Z,92911.94
2018-02-21T08:09:26.868Z,92916.71
2018-02-21T08:11:53.241Z,92913.98
2018-02-21T08:14:19.665Z,92917.54
2018-02-21T08:16:46.039Z,92918.27
2018-02-21T08:19:12.425Z,92918.52
2018-02-21T08:21:38.824Z,92919.13
2018-02-21T08:24:05.225Z,92922.92
2018-02-21T08:26:31.610Z,92926.23
2018-02-21T08:29:00.118Z,92930.20
2018-02-21T08:31:26.468Z,92923.98
2018-02-21T08:33:52.814Z,92923.83
2018-02-21T08:36:19.289Z,92919.48
2018-02-21T08:38:46.729Z,92926.05
2018-02-21T08:41:13.078Z,92931.08
2018-02-21T08:43:39.468Z,92926.70
2018-02-21T08:46:05.806Z,92925.89
2018-02-21T08:48:36.875Z,92929.34
2018-02-21T08:51:03.327Z,92933.02
2018-02-21T08:53:29.853Z,92932.15
2018-02-21T08:55:56.270Z,92940.30
2018-02-21T08:58:26.299Z,92938.02
2018-02-21T09:00:52.778Z,92932.78
2018-02-21T09:03:19.145Z,92929.58
2018-02-21T09:05:46.077Z,92934.11
2018-02-21T09:08:18.922Z,92937.52
2018-02-21T09:10:45.254Z,92935.22
2018-02-21T09:13:11.819Z,92930.63
2018-02-21T09:15:38.196Z,92942.46
2018-02-21T09:18:12.171Z,92939.59
2018-02-21T09:20:38.603Z,92938.14
2018-02-21T09:23:05.036Z,92940.16
2018-02-21T09:25:32.374Z,92937.77
2018-02-21T09:27:59.008Z,92940.45
2018-02-21T09:30:25.395Z,92947.57
2018-02-21T09:32:51.891Z,92955.65
2018-02-21T09:35:18.345Z,92940.95
2018-02-21T09:37:52.087Z,92944.25
2018-02-21T09:40:18.588Z,92944.86
2018-02-21T09:42:45.147Z,92944.31
2018-02-21T09:45:11.662Z,92946.08
2018-02-21T09:47:38.046Z,92946.62
2018-02-21T09:50:05.132Z,92948.65
2018-02-21T09:52:31.519Z,92938.64
2018-02-21T09:54:57.862Z,92946.11
2018-02-21T09:57:24.164Z,92935.59
2018-02-21T09:59:50.604Z,92933.10
2018-02-21T10:02:16.941Z,92936.42
2018-02-21T10:04:43.266Z,92931.58
2018-02-21T10:07:09.640Z,92934.14
2018-02-21T10:09:36.130Z,92936.56
2018-02-21T10:12:02.509Z,92924.84
2018-02-21T10:14:28.979Z,92921.38
2018-02-21T10:16:55.340Z,92922.64
2018-02-21T10:19:28.703Z,92918.39
2018-02-21T10:21:55.084Z,92906.61
2018-02-21T10:24:21.501Z,92918.66
2018-02-21T10:26:47.892Z,92911.60
2018-02-21T10:29:18.534Z,92907.55
2018-02-21T10:31:45.008Z,92910.80
2018-02-21T10:34:11.415Z,92895.82
2018-02-21T10:36:37.901Z,92900.36
2018-02-21T10:39:04.600Z,92902.38
2018-02-21T10:41:31.079Z,92898.58
2018-02-21T10:43:57.539Z,92899.13
2018-02-21T10:46:23.929Z,92895.24
2018-02-21T10:48:50.324Z,92891.17
2018-02-21T10:51:16.755Z,92896.23
2018-02-21T10:53:43.114Z,92897.76
2018-02-21T10:56:09.616Z,92887.57
2018-02-21T10:58:36.064Z,92880.98
2018-02-21T11:01:08.444Z,92882.31
2018-02-21T11:03:34.856Z,92881.89
2018-02-21T11:06:01.238Z,92870.70
2018-02-21T11:08:27.643Z,92877.19
2018-02-21T11:10:54.185Z,92894.14
2018-02-21T11:13:20.565Z,92883.55
2018-02-21T11:15:46.921Z,92879.50
2018-02-21T11:18:13.359Z,92892.96
2018-02-21T11:20:39.727Z,92888.50
2018-02-21T11:23:06.157Z,92882.72
2018-02-21T11:25:32.606Z,92875.81
2018-02-21T11:27:59.022Z,92888.63
2018-02-21T11:30:25.377Z,92891.24
2018-02-21T11:32:51.746Z,92885.82
2018-02-21T11:35:18.193Z,92891.77
2018-02-21T11:37:45.660Z,92881.91
2018-02-21T11:40:12.316Z,92890.33
2018-02-21T11:42:38.892Z,92885.80
2018-02-21T11:45:05.587Z,92872.70
2018-02-21T11:47:31.945Z,92867.91
2018-02-21T11:50:01.654Z,92870.92
2018-02-21T11:52:28.112Z,92867.50
2018-02-21T11:54:55.590Z,92882.16
2018-02-21T11:57:22.165Z,92866.73
2018-02-21T11:59:50.510Z,92866.94
2018-02-21T12:02:17.622Z,92864.30
2018-02-21T12:04:45.127Z,92864.48
2018-02-21T12:07:11.646Z,92862.23
2018-02-21T12:09:39.157Z,92860.84
2018-02-21T12:12:05.696Z,92856.52
2018-02-21T12:14:32.434Z,92851.80
2018-02-21T12:16:58.802Z,92855.33
2018-02-21T12:19:28.760Z,92866.00
2018-02-21T12:21:55.358Z,92851.42
2018-02-21T12:24:21.791Z,92857.45
2018-02-21T12:26:48.397Z,92850.13
2018-02-21T12:29:22.970Z,92858.73
2018-02-21T12:31:53.585Z,92852.79
2018-02-21T12:34:19.936Z,92853.53
2018-02-21T12:36:46.472Z,92852.89
2018-02-21T12:39:19.156Z,92855.42
2018-02-21T12:41:45.632Z,92849.78
2018-02-21T12:44:12.190Z,92848.62
2018-02-21T12:46:38.551Z,92848.23
2018-02-21T12:49:04.965Z,92851.43
2018-02-21T12:51:31.312Z,92850.49
2018-02-21T12:53:57.710Z,92845.66
2018-02-21T12:56:24.176Z,92840.99
2018-02-21T12:58:50.660Z,92844.84
2018-02-21T13:01:17.090Z,92842.52
2018-02-21T13:03:43.493Z,92845.24
2018-02-21T13:06:10.127Z,92850.26
2018-02-21T13:08:36.601Z,92848.03
2018-02-21T13:11:03.040Z,92861.59
2018-02-21T13:13:29.818Z,92850.94
2018-02-21T13:15:56.333Z,92858.83
2018-02-21T13:18:22.870Z,92856.28
2018-02-21T13:20:49.298Z,92862.05
2018-02-21T13:23:15.747Z,92852.49
2018-02-21T13:25:42.134Z,92854.27
2018-02-21T13:28:09.689Z,92850.36
2018-02-21T13:30:36.129Z,92852.69
2018-02-21T13:33:02.529Z,92852.05
2018-02-21T13:35:28.911Z,92852.05
2018-02-21T13:38:01.218Z,92850.73
2018-02-21T13:40:27.850Z,92844.11
2018-02-21T13:42:54.386Z,92838.08
2018-02-21T13:45:20.827Z,92838.53
2018-02-21T13:47:48.350Z,92832.71
2018-02-21T13:50:14.714Z,92834.38
2018-02-21T13:52:41.150Z,92830.63
2018-02-21T13:55:07.556Z,92832.06
2018-02-21T13:57:33.910Z,92838.27
2018-02-21T14:00:06.880Z,92832.23
2018-02-21T14:02:33.269Z,92836.98
2018-02-21T14:04:59.762Z,92842.52
2018-02-21T14:07:26.171Z,92839.29
2018-02-21T14:10:03.056Z,92846.30
2018-02-21T14:12:29.494Z,92843.33
2018-02-21T14:14:55.895Z,92847.67
2018-02-21T14:17:22.331Z,92849.44
2018-02-21T14:19:56.978Z,92847.27
2018-02-21T14:22:23.350Z,92836.84
2018-02-21T14:24:49.816Z,92829.82
2018-02-21T14:27:16.241Z,92833.65
2018-02-21T14:29:42.679Z,92834.41
2018-02-21T14:32:09.171Z,92840.42
2018-02-21T14:34:35.714Z,92840.50
2018-02-21T14:37:02.186Z,92842.59
2018-02-21T14:39:28.566Z,92828.72
2018-02-21T14:41:54.968Z,92838.74
2018-02-21T14:44:21.402Z,92834.08
2018-02-21T14:46:47.804Z,92839.53
2018-02-21T14:49:14.432Z,92840.65
2018-02-21T14:51:40.847Z,92845.95
2018-02-21T14:54:07.312Z,92846.19
2018-02-21T14:56:34.700Z,92850.39
2018-02-21T14:59:01.072Z,92856.42
2018-02-21T15:01:27.505Z,92862.13
2018-02-21T15:03:53.941Z,92865.15
2018-02-21T15:06:20.299Z,92857.92
2018-02-21T15:08:59.386Z,92847.61
2018-02-21T15:11:26.118Z,92849.57
2018-02-21T15:13:53.129Z,92843.67
2018-02-21T15:16:26.312Z,92849.92
2018-02-21T15:18:56.777Z,92858.50
2018-02-21T15:21:26.549Z,92858.89
2018-02-21T15:23:53.580Z,92862.62
2018-02-21T15:26:20.160Z,92856.73
2018-02-21T15:28:50.585Z,92853.06
2018-02-21T15:31:20.715Z,92852.59
2018-02-21T15:33:50.404Z,92849.84
2018-02-21T15:36:17.930Z,92844.70
2018-02-21T15:38:48.004Z,92842.00
2018-02-21T15:41:16.502Z,92841.06
2018-02-21T15:43:43.656Z,92843.57
2018-02-21T15:46:11.314Z,92848.23
2018-02-21T15:48:46.060Z,92852.24
2018-02-21T15:51:12.596Z,92858.92
2018-02-21T15:53:39.173Z,92861.05
2018-02-21T15:56:05.858Z,92856.87
2018-02-21T15:58:39.880Z,92847.54
2018-02-21T16:01:06.381Z,92849.86
2018-02-21T16:03:32.948Z,92853.94
2018-02-21T16:05:59.560Z,92848.62
2018-02-21T16:08:33.612Z,92855.09
2018-02-21T16:11:00.410Z,92850.59
2018-02-21T16:13:32.009Z,92859.20
2018-02-21T16:15:59.632Z,92856.29
2018-02-21T16:18:25.981Z,92856.72
2018-02-21T16:20:52.447Z,92859.16
2018-02-21T16:23:19.062Z,92862.55
2018-02-21T16:25:45.465Z,92866.09
2018-02-21T16:28:11.941Z,92878.08
2018-02-21T16:30:38.336Z,92871.79
2018-02-21T16:33:04.701Z,92868.36
2018-02-21T16:35:31.056Z,92863.73
2018-02-21T16:37:57.624Z,92865.28
2018-02-21T16:40:23.980Z,92872.91
2018-02-21T16:42:50.348Z,92874.19
2018-02-21T16:45:18.043Z,92872.44
2018-02-21T16:47:44.507Z,92873.47
2018-02-21T16:50:10.898Z,92876.81
2018-02-21T16:52:37.466Z,92876.76
2018-02-21T16:55:03.983Z,92876.14
2018-02-21T16:57:30.471Z,92873.42
2018-02-21T17:00:00.241Z,92881.22
2018-02-21T17:02:26.609Z,92873.48
2018-02-21T17:04:53.033Z,92873.94
2018-02-21T17:07:19.459Z,92871.57
2018-02-21T17:10:01.313Z,92871.38
2018-02-21T17:12:27.870Z,92872.27
2018-02-21T17:14:54.352Z,92866.02
2018-02-21T17:17:20.743Z,92874.84
2018-02-21T17:19:47.360Z,92873.28
2018-02-21T17:22:13.772Z,92876.43
2018-02-21T17:24:40.197Z,92876.38
2018-02-21T17:27:06.642Z,92873.91
2018-02-21T17:29:33.086Z,92872.16
2018-02-21T17:31:59.609Z,92887.42
2018-02-21T17:34:26.172Z,92885.92
2018-02-21T17:36:52.728Z,92881.56
2018-02-21T17:39:23.917Z,92876.61
2018-02-21T17:41:50.367Z,92867.87
2018-02-21T17:44:16.809Z,92870.80
2018-02-21T17:46:43.398Z,92867.47
2018-02-21T17:49:10.047Z,92867.91
2018-02-21T17:51:36.698Z,92880.85
2018-02-21T17:54:03.139Z,92884.11
2018-02-21T17:56:29.722Z,92883.91
2018-02-21T17:58:56.314Z,92899.70
2018-02-21T18:01:23.078Z,92898.58
2018-02-21T18:03:49.799Z,92899.92
2018-02-21T18:06:16.680Z,92888.23
2018-02-21T18:08:43.330Z,92892.31
2018-02-21T18:11:09.891Z,92896.31
2018-02-21T18:13:36.283Z,92899.08
2018-02-21T18:16:03.498Z,92896.57
2018-02-21T18:18:31.471Z,92894.36
2018-02-21T18:20:58.104Z,92894.72
2018-02-21T18:23:24.873Z,92889.60
2018-02-21T18:25:52.702Z,92901.54
2018-02-21T18:28:20.697Z,92896.88
2018-02-21T18:30:47.415Z,92891.81
2018-02-21T18:33:14.180Z,92897.20
2018-02-21T18:35:40.790Z,92889.51
2018-02-21T18:38:10.478Z,92898.99
2018-02-21T18:40:37.078Z,92897.50
2018-02-21T18:43:03.703Z,92904.02
2018-02-21T18:45:30.743Z,92899.03
2018-02-21T18:47:57.687Z,92897.40
2018-02-21T18:50:24.220Z,92906.09
2018-02-21T18:52:50.828Z,92911.09
2018-02-21T18:55:17.554Z,92907.71
2018-02-21T18:57:44.042Z,92910.28
2018-02-21T19:00:13.872Z,92909.00
2018-02-21T19:02:40.504Z,92912.48
2018-02-21T19:05:06.998Z,92907.04
2018-02-21T19:07:33.517Z,92907.36
2018-02-21T19:10:01.196Z,92897.35
2018-02-21T19:12:27.570Z,92903.51
2018-02-21T19:14:54.005Z,92903.47
2018-02-21T19:17:20.658Z,92899.88
2018-02-21T19:19:47.769Z,92896.53
2018-02-21T19:22:14.211Z,92891.78
2018-02-21T19:24:40.631Z,92891.66
2018-02-21T19:27:07.138Z,92896.90
2018-02-21T19:29:33.668Z,92900.67
2018-02-21T19:32:00.137Z,92908.23
2018-02-21T19:34:26.654Z,92917.05
2018-02-21T19:36:53.068Z,92920.08
2018-02-21T19:39:19.606Z,92918.48
2018-02-21T19:41:46.142Z,92915.23
2018-02-21T19:44:12.565Z,92922.79
2018-02-21T19:46:39.132Z,92917.38
2018-02-21T19:49:09.378Z,92919.14
2018-02-21T19:51:35.944Z,92925.12
2018-02-21T19:54:02.889Z,92924.52
2018-02-21T19:56:29.456Z,92920.18
2018-02-21T19:59:04.084Z,92917.09
2018-02-21T20:01:30.592Z,92917.23
2018-02-21T20:03:57.048Z,92923.92
2018-02-21T20:06:24.225Z,92923.19
2018-02-21T20:08:51.163Z,92910.25
2018-02-21T20:11:17.678Z,92904.83
2018-02-21T20:13:44.192Z,92910.20
2018-02-21T20:16:10.676Z,92908.56
2018-02-21T20:18:46.282Z,92908.42
2018-02-21T20:21:13.043Z,92908.81
2018-02-21T20:23:39.540Z,92916.32
2018-02-21T20:26:06.151Z,92922.38
2018-02-21T20:28:32.731Z,92923.36
2018-02-21T20:30:59.363Z,92919.89
2018-02-21T20:33:26.016Z,92919.27
2018-02-21T20:35:52.576Z,92927.58
2018-02-21T20:38:30.297Z,92916.92
2018-02-21T20:40:57.139Z,92919.93
2018-02-21T20:43:23.638Z,92910.88
2018-02-21T20:45:50.088Z,92908.22
2018-02-21T20:48:18.779Z,92913.98
2018-02-21T20:50:45.347Z,92907.17
2018-02-21T20:53:11.940Z,92907.55
2018-02-21T20:55:38.464Z,92906.09
2018-02-21T20:58:11.006Z,92907.16
2018-02-21T21:00:37.627Z,92907.28
2018-02-21T21:03:04.055Z,92902.80
2018-02-21T21:05:30.564Z,92905.66
2018-02-21T21:07:57.003Z,92912.64
2018-02-21T21:10:23.487Z,92910.72
2018-02-21T21:12:49.937Z,92902.91
2018-02-21T21:15:16.409Z,92906.72
2018-02-21T21:17:43.249Z,92896.98
2018-02-21T21:20:10.641Z,92903.09
2018-02-21T21:22:37.139Z,92909.81
2018-02-21T21:25:03.527Z,92914.01
2018-02-21T21:27:30.163Z,92912.03
2018-02-21T21:29:56.684Z,92909.73
2018-02-21T21:32:23.096Z,92910.64
2018-02-21T21:34:49.481Z,92910.30
2018-02-21T21:37:15.917Z,92908.59
2018-02-21T21:39:46.157Z,92913.11
2018-02-21T21:42:12.561Z,92907.89
2018-02-21T21:44:38.999Z,92904.45
2018-02-21T21:47:05.441Z,92907.78
2018-02-21T21:49:35.943Z,92902.78
2018-02-21T21:52:02.368Z,92915.11
2018-02-21T21:54:28.792Z,92908.97
2018-02-21T21:56:55.330Z,92911.53
2018-02-21T21:59:22.774Z,92916.22
2018-02-21T22:01:49.191Z,92913.95
2018-02-21T22:04:15.558Z,92911.38
2018-02-21T22:06:42.321Z,92906.61
2018-02-21T22:09:12.361Z,92906.64
2018-02-21T22:11:38.701Z,92912.53
2018-02-21T22:14:05.160Z,92909.60
2018-02-21T22:16:31.518Z,92906.13
2018-02-21T22:18:57.900Z,92907.93
2018-02-21T22:21:24.294Z,92901.06
2018-02-21T22:23:50.638Z,92899.94
2018-02-21T22:26:17.039Z,92903.66
2018-02-21T22:28:53.836Z,92900.31
2018-02-21T22:31:20.242Z,92894.23
2018-02-21T22:33:46.584Z,92891.08
2018-02-21T22:36:13.003Z,92892.22
2018-02-21T22:38:39.409Z,92893.94
2018-02-21T22:41:05.779Z,92895.58
2018-02-21T22:43:32.164Z,92895.41
2018-02-21T22:45:58.548Z,92896.08
2018-02-21T22:48:25.287Z,92905.00
2018-02-21T22:50:51.815Z,92895.98
2018-02-21T22:53:18.220Z,92887.69
2018-02-21T22:55:44.586Z,92894.86
2018-02-21T22:58:11.106Z,92891.98
2018-02-21T23:00:37.471Z,92888.02
2018-02-21T23:03:03.869Z,92885.14
2018-02-21T23:05:30.318Z,92883.28
2018-02-21T23:07:56.775Z,92879.88
2018-02-21T23:10:26.832Z,92882.66
2018-02-21T23:12:53.243Z,92877.67
2018-02-21T23:15:19.664Z,92884.80
2018-02-21T23:17:46.050Z,92872.57
2018-02-21T23:20:14.696Z,92881.83
2018-02-21T23:22:41.081Z,92880.78
2018-02-21T23:25:07.447Z,92883.84
2018-02-21T23:27:33.976Z,92888.98
2018-02-21T23:30:00.500Z,92884.95
2018-02-21T23:32:26.942Z,92889.91
2018-02-21T23:34:53.324Z,92883.27
2018-02-21T23:37:19.777Z,92884.93
2018-02-21T23:39:49.522Z,92889.46
2018-02-21T23:42:15.925Z,92886.65
2018-02-21T23:44:42.288Z,92887.02
2018-02-21T23:47:08.712Z,92884.06
2018-02-21T23:49:38.316Z,92872.86
2018-02-21T23:52:04.683Z,92876.16
2018-02-21T23:54:31.101Z,92872.14
2018-02-21T23:56:57.711Z,92868.29
2018-02-21T23:59:24.092Z,92866.35
